sensor_id;sensor_type;location;lat;lon;timestamp;pressure;altitude;pressure_sealevel;temperature;humidity
39363;BME280;25088;43.238;23.110;2022-10-17T00:00:48;97845.41;;;9.89;75.40
39363;BME280;25088;43.238;23.110;2022-10-17T00:03:14;97863.81;;;10.00;75.54
39363;BME280;25088;43.238;23.110;2022-10-17T00:05:42;97882.63;;;10.15;74.93
39363;BME280;25088;43.238;23.110;2022-10-17T00:08:09;97875.16;;;9.97;75.20
39363;BME280;25088;43.238;23.110;2022-10-17T00:10:35;97890.22;;;10.06;75.11
39363;BME280;25088;43.238;23.110;2022-10-17T00:13:00;97881.38;;;10.10;75.08
39363;BME280;25088;43.238;23.110;2022-10-17T00:15:26;97884.00;;;9.92;75.17
39363;BME280;25088;43.238;23.110;2022-10-17T00:17:51;97886.69;;;9.99;76.15
39363;BME280;25088;43.238;23.110;2022-10-17T00:20:17;97887.13;;;9.96;76.43
39363;BME280;25088;43.238;23.110;2022-10-17T00:22:43;97888.84;;;9.90;75.41
39363;BME280;25088;43.238;23.110;2022-10-17T00:25:09;97896.59;;;9.93;75.99
39363;BME280;25088;43.238;23.110;2022-10-17T00:27:36;97883.81;;;9.87;76.86
39363;BME280;25088;43.238;23.110;2022-10-17T00:30:03;97887.84;;;9.84;77.66
39363;BME280;25088;43.238;23.110;2022-10-17T00:32:29;97893.34;;;9.71;78.53
39363;BME280;25088;43.238;23.110;2022-10-17T00:34:54;97892.47;;;9.77;77.67
39363;BME280;25088;43.238;23.110;2022-10-17T00:37:20;97887.84;;;9.78;78.23
39363;BME280;25088;43.238;23.110;2022-10-17T00:39:45;97896.91;;;9.72;77.50
39363;BME280;25088;43.238;23.110;2022-10-17T00:42:14;97889.94;;;9.82;76.77
39363;BME280;25088;43.238;23.110;2022-10-17T00:47:08;97883.88;;;9.80;76.96
39363;BME280;25088;43.238;23.110;2022-10-17T00:49:37;97898.34;;;9.81;77.48
39363;BME280;25088;43.238;23.110;2022-10-17T00:52:13;97891.53;;;9.97;76.25
39363;BME280;25088;43.238;23.110;2022-10-17T00:54:43;97898.06;;;9.96;76.96
39363;BME280;25088;43.238;23.110;2022-10-17T00:57:10;97900.31;;;9.99;75.94
39363;BME280;25088;43.238;23.110;2022-10-17T00:59:38;97890.81;;;9.76;77.82
39363;BME280;25088;43.238;23.110;2022-10-17T01:02:10;97901.06;;;9.74;79.27
39363;BME280;25088;43.238;23.110;2022-10-17T01:04:40;97900.03;;;9.75;78.44
39363;BME280;25088;43.238;23.110;2022-10-17T01:07:06;97897.56;;;9.67;79.58
39363;BME280;25088;43.238;23.110;2022-10-17T01:09:32;97897.97;;;9.71;79.08
39363;BME280;25088;43.238;23.110;2022-10-17T01:20:28;97903.16;;;9.79;79.05
39363;BME280;25088;43.238;23.110;2022-10-17T01:24:09;97895.88;;;9.66;79.33
39363;BME280;25088;43.238;23.110;2022-10-17T01:31:36;97897.81;;;9.52;80.27
39363;BME280;25088;43.238;23.110;2022-10-17T01:34:15;97894.50;;;9.44;81.09
39363;BME280;25088;43.238;23.110;2022-10-17T01:36:56;97886.75;;;9.41;81.66
39363;BME280;25088;43.238;23.110;2022-10-17T01:42:22;97888.84;;;9.39;81.89
39363;BME280;25088;43.238;23.110;2022-10-17T01:45:00;97895.56;;;9.36;83.06
39363;BME280;25088;43.238;23.110;2022-10-17T01:47:29;97875.22;;;9.39;82.24
39363;BME280;25088;43.238;23.110;2022-10-17T01:50:00;97895.78;;;9.41;82.53
39363;BME280;25088;43.238;23.110;2022-10-17T01:52:40;97891.16;;;9.42;83.04
39363;BME280;25088;43.238;23.110;2022-10-17T01:55:14;97889.91;;;9.38;83.59
39363;BME280;25088;43.238;23.110;2022-10-17T01:57:49;97899.09;;;9.43;82.06
39363;BME280;25088;43.238;23.110;2022-10-17T02:00:22;97888.47;;;9.35;82.65
39363;BME280;25088;43.238;23.110;2022-10-17T02:02:52;97902.28;;;9.40;82.89
39363;BME280;25088;43.238;23.110;2022-10-17T02:05:23;97899.75;;;9.45;82.54
39363;BME280;25088;43.238;23.110;2022-10-17T02:07:50;97896.38;;;9.50;81.46
39363;BME280;25088;43.238;23.110;2022-10-17T02:10:24;97909.34;;;9.54;82.03
39363;BME280;25088;43.238;23.110;2022-10-17T02:13:01;97914.16;;;9.59;81.86
39363;BME280;25088;43.238;23.110;2022-10-17T02:15:52;97914.38;;;9.57;81.12
39363;BME280;25088;43.238;23.110;2022-10-17T02:21:45;97915.84;;;9.60;80.73
39363;BME280;25088;43.238;23.110;2022-10-17T02:27:10;97929.94;;;9.44;82.14
39363;BME280;25088;43.238;23.110;2022-10-17T02:29:45;97929.94;;;9.37;82.06
39363;BME280;25088;43.238;23.110;2022-10-17T02:34:57;97936.25;;;9.24;82.85
39363;BME280;25088;43.238;23.110;2022-10-17T02:37:27;97931.25;;;9.21;83.31
39363;BME280;25088;43.238;23.110;2022-10-17T02:39:55;97945.91;;;9.27;83.29
39363;BME280;25088;43.238;23.110;2022-10-17T02:42:23;97940.88;;;9.24;82.55
39363;BME280;25088;43.238;23.110;2022-10-17T02:44:51;97937.50;;;9.28;83.09
39363;BME280;25088;43.238;23.110;2022-10-17T02:47:22;97943.78;;;9.42;81.17
39363;BME280;25088;43.238;23.110;2022-10-17T02:49:51;97943.81;;;9.36;81.83
39363;BME280;25088;43.238;23.110;2022-10-17T02:52:39;97945.25;;;9.45;80.41
39363;BME280;25088;43.238;23.110;2022-10-17T02:55:15;97943.75;;;9.49;80.39
39363;BME280;25088;43.238;23.110;2022-10-17T02:57:48;97938.16;;;9.24;82.06
39363;BME280;25088;43.238;23.110;2022-10-17T03:00:17;97941.31;;;9.21;81.42
39363;BME280;25088;43.238;23.110;2022-10-17T03:02:48;97943.81;;;9.36;80.99
39363;BME280;25088;43.238;23.110;2022-10-17T03:05:25;97928.28;;;9.36;80.26
39363;BME280;25088;43.238;23.110;2022-10-17T03:07:52;97947.97;;;9.45;80.57
39363;BME280;25088;43.238;23.110;2022-10-17T03:10:18;97942.09;;;9.41;79.91
39363;BME280;25088;43.238;23.110;2022-10-17T03:12:44;97946.69;;;9.47;79.81
39363;BME280;25088;43.238;23.110;2022-10-17T03:15:10;97945.91;;;9.40;79.66
39363;BME280;25088;43.238;23.110;2022-10-17T03:17:36;97945.03;;;9.40;80.51
39363;BME280;25088;43.238;23.110;2022-10-17T03:20:02;97942.75;;;9.37;81.04
39363;BME280;25088;43.238;23.110;2022-10-17T03:22:28;97938.34;;;9.36;81.44
39363;BME280;25088;43.238;23.110;2022-10-17T03:24:53;97945.06;;;9.33;80.85
39363;BME280;25088;43.238;23.110;2022-10-17T03:27:19;97953.66;;;9.37;80.24
39363;BME280;25088;43.238;23.110;2022-10-17T03:29:44;97950.09;;;9.36;80.51
39363;BME280;25088;43.238;23.110;2022-10-17T03:32:10;97946.72;;;9.34;80.17
39363;BME280;25088;43.238;23.110;2022-10-17T03:34:35;97956.34;;;9.43;79.76
39363;BME280;25088;43.238;23.110;2022-10-17T03:37:01;97959.97;;;9.30;81.09
39363;BME280;25088;43.238;23.110;2022-10-17T03:39:26;97964.97;;;9.33;81.23
39363;BME280;25088;43.238;23.110;2022-10-17T03:41:52;97963.53;;;9.31;81.08
39363;BME280;25088;43.238;23.110;2022-10-17T03:44:17;97971.06;;;9.36;80.19
39363;BME280;25088;43.238;23.110;2022-10-17T03:46:43;97971.66;;;9.38;80.43
39363;BME280;25088;43.238;23.110;2022-10-17T03:49:09;97972.09;;;9.35;80.32
39363;BME280;25088;43.238;23.110;2022-10-17T03:51:35;97980.94;;;9.30;80.77
39363;BME280;25088;43.238;23.110;2022-10-17T03:54:01;97969.16;;;9.29;79.70
39363;BME280;25088;43.238;23.110;2022-10-17T03:56:26;97977.56;;;9.28;80.67
39363;BME280;25088;43.238;23.110;2022-10-17T03:58:53;97980.47;;;9.33;79.12
39363;BME280;25088;43.238;23.110;2022-10-17T04:01:19;97970.44;;;9.27;80.48
39363;BME280;25088;43.238;23.110;2022-10-17T04:03:51;97981.56;;;9.25;80.92
39363;BME280;25088;43.238;23.110;2022-10-17T04:06:18;97981.97;;;9.22;80.32
39363;BME280;25088;43.238;23.110;2022-10-17T04:08:43;97976.50;;;9.29;79.67
39363;BME280;25088;43.238;23.110;2022-10-17T04:11:12;97977.56;;;9.28;79.69
39363;BME280;25088;43.238;23.110;2022-10-17T04:13:38;97968.56;;;9.14;79.65
39363;BME280;25088;43.238;23.110;2022-10-17T04:16:06;97979.47;;;9.21;79.39
39363;BME280;25088;43.238;23.110;2022-10-17T04:18:32;97978.63;;;9.14;80.23
39363;BME280;25088;43.238;23.110;2022-10-17T04:21:00;97979.47;;;9.21;79.66
39363;BME280;25088;43.238;23.110;2022-10-17T04:23:27;97968.78;;;9.13;79.86
39363;BME280;25088;43.238;23.110;2022-10-17T04:25:59;97974.84;;;9.21;79.99
39363;BME280;25088;43.238;23.110;2022-10-17T04:28:25;97979.03;;;9.24;80.05
39363;BME280;25088;43.238;23.110;2022-10-17T04:31:05;97978.00;;;9.12;80.31
39363;BME280;25088;43.238;23.110;2022-10-17T04:33:31;97980.53;;;9.06;80.85
39363;BME280;25088;43.238;23.110;2022-10-17T04:36:01;97985.94;;;9.20;79.68
39363;BME280;25088;43.238;23.110;2022-10-17T04:38:28;97977.13;;;9.24;79.63
39363;BME280;25088;43.238;23.110;2022-10-17T04:40:58;97990.97;;;9.29;78.92
39363;BME280;25088;43.238;23.110;2022-10-17T04:43:27;97986.19;;;9.25;79.37
39363;BME280;25088;43.238;23.110;2022-10-17T04:45:53;97988.88;;;9.31;78.35
39363;BME280;25088;43.238;23.110;2022-10-17T04:48:18;97995.19;;;9.25;78.70
39363;BME280;25088;43.238;23.110;2022-10-17T04:50:54;97997.03;;;9.38;80.00
39363;BME280;25088;43.238;23.110;2022-10-17T04:53:21;97996.22;;;9.18;79.43
39363;BME280;25088;43.238;23.110;2022-10-17T04:55:47;97999.56;;;9.20;79.86
39363;BME280;25088;43.238;23.110;2022-10-17T04:58:12;97976.97;;;9.06;79.65
39363;BME280;25088;43.238;23.110;2022-10-17T05:00:38;97999.78;;;9.31;78.77
39363;BME280;25088;43.238;23.110;2022-10-17T05:03:04;98010.69;;;9.31;78.59
39363;BME280;25088;43.238;23.110;2022-10-17T05:05:30;98000.19;;;9.28;78.74
39363;BME280;25088;43.238;23.110;2022-10-17T05:07:55;97998.94;;;9.38;77.46
39363;BME280;25088;43.238;23.110;2022-10-17T05:10:21;98011.91;;;9.49;77.98
39363;BME280;25088;43.238;23.110;2022-10-17T05:12:47;98012.31;;;9.59;77.43
39363;BME280;25088;43.238;23.110;2022-10-17T05:15:13;98017.69;;;9.79;76.39
39363;BME280;25088;43.238;23.110;2022-10-17T05:17:38;98014.69;;;10.07;73.23
39363;BME280;25088;43.238;23.110;2022-10-17T05:20:04;98021.09;;;10.32;74.19
39363;BME280;25088;43.238;23.110;2022-10-17T05:22:30;98017.56;;;10.64;71.09
39363;BME280;25088;43.238;23.110;2022-10-17T05:24:56;98020.41;;;10.82;69.25
39363;BME280;25088;43.238;23.110;2022-10-17T05:27:21;98011.97;;;11.08;68.52
39363;BME280;25088;43.238;23.110;2022-10-17T05:29:46;98023.03;;;11.45;66.55
39363;BME280;25088;43.238;23.110;2022-10-17T05:32:14;98021.22;;;11.57;65.54
39363;BME280;25088;43.238;23.110;2022-10-17T05:34:39;98024.00;;;11.76;63.96
39363;BME280;25088;43.238;23.110;2022-10-17T05:37:05;98031.72;;;12.04;62.85
39363;BME280;25088;43.238;23.110;2022-10-17T05:39:30;98015.13;;;12.17;61.74
39363;BME280;25088;43.238;23.110;2022-10-17T05:41:55;98028.31;;;12.57;61.37
39363;BME280;25088;43.238;23.110;2022-10-17T05:44:21;98012.66;;;12.76;59.55
39363;BME280;25088;43.238;23.110;2022-10-17T05:46:50;98015.34;;;13.06;58.40
39363;BME280;25088;43.238;23.110;2022-10-17T05:49:15;98029.97;;;13.41;57.17
39363;BME280;25088;43.238;23.110;2022-10-17T05:51:41;98035.50;;;13.65;57.00
39363;BME280;25088;43.238;23.110;2022-10-17T05:54:07;98031.19;;;13.69;56.82
39363;BME280;25088;43.238;23.110;2022-10-17T05:56:33;98038.59;;;13.80;56.60
39363;BME280;25088;43.238;23.110;2022-10-17T05:58:59;98037.63;;;13.98;56.31
39363;BME280;25088;43.238;23.110;2022-10-17T06:01:25;98041.53;;;14.02;57.07
39363;BME280;25088;43.238;23.110;2022-10-17T06:03:50;98037.97;;;14.13;56.44
39363;BME280;25088;43.238;23.110;2022-10-17T06:06:16;98031.13;;;14.28;55.55
39363;BME280;25088;43.238;23.110;2022-10-17T06:08:43;98038.41;;;14.74;54.42
39363;BME280;25088;43.238;23.110;2022-10-17T06:11:10;98038.88;;;14.99;54.00
39363;BME280;25088;43.238;23.110;2022-10-17T06:13:35;98052.00;;;15.26;53.23
39363;BME280;25088;43.238;23.110;2022-10-17T06:16:01;98053.25;;;15.35;53.07
39363;BME280;25088;43.238;23.110;2022-10-17T06:18:27;98054.53;;;15.44;53.32
39363;BME280;25088;43.238;23.110;2022-10-17T06:20:52;98056.22;;;15.79;52.92
39363;BME280;25088;43.238;23.110;2022-10-17T06:23:18;98057.25;;;16.12;52.29
39363;BME280;25088;43.238;23.110;2022-10-17T06:25:43;98059.00;;;16.62;51.50
39363;BME280;25088;43.238;23.110;2022-10-17T06:28:09;98063.41;;;17.07;50.31
39363;BME280;25088;43.238;23.110;2022-10-17T06:30:39;98057.75;;;17.50;48.90
39363;BME280;25088;43.238;23.110;2022-10-17T06:33:05;98054.09;;;18.14;47.38
39363;BME280;25088;43.238;23.110;2022-10-17T06:35:31;98060.63;;;18.45;45.33
39363;BME280;25088;43.238;23.110;2022-10-17T06:37:56;98060.81;;;18.76;45.29
39363;BME280;25088;43.238;23.110;2022-10-17T06:40:22;98065.84;;;18.99;44.42
39363;BME280;25088;43.238;23.110;2022-10-17T06:42:47;98057.31;;;19.26;44.06
39363;BME280;25088;43.238;23.110;2022-10-17T06:45:13;98062.03;;;19.21;43.14
39363;BME280;25088;43.238;23.110;2022-10-17T06:47:38;98063.34;;;18.98;43.14
39363;BME280;25088;43.238;23.110;2022-10-17T06:50:04;98059.56;;;19.50;43.32
39363;BME280;25088;43.238;23.110;2022-10-17T06:52:30;98069.28;;;19.68;43.12
39363;BME280;25088;43.238;23.110;2022-10-17T06:54:55;98068.19;;;19.94;43.05
39363;BME280;25088;43.238;23.110;2022-10-17T06:57:21;98066.72;;;20.32;42.72
39363;BME280;25088;43.238;23.110;2022-10-17T06:59:46;98068.09;;;20.50;42.56
39363;BME280;25088;43.238;23.110;2022-10-17T07:02:12;98071.16;;;20.54;41.80
39363;BME280;25088;43.238;23.110;2022-10-17T07:04:37;98058.84;;;20.75;41.70
39363;BME280;25088;43.238;23.110;2022-10-17T07:07:04;98068.69;;;21.02;41.33
39363;BME280;25088;43.238;23.110;2022-10-17T07:09:30;98070.88;;;21.10;41.03
39363;BME280;25088;43.238;23.110;2022-10-17T07:11:56;98073.84;;;21.34;39.85
39363;BME280;25088;43.238;23.110;2022-10-17T07:14:21;98064.34;;;21.40;40.00
39363;BME280;25088;43.238;23.110;2022-10-17T07:16:47;98065.06;;;21.56;40.06
39363;BME280;25088;43.238;23.110;2022-10-17T07:19:14;98064.28;;;21.84;38.59
39363;BME280;25088;43.238;23.110;2022-10-17T07:21:39;98062.75;;;21.97;39.04
39363;BME280;25088;43.238;23.110;2022-10-17T07:24:05;98067.09;;;22.13;38.91
39363;BME280;25088;43.238;23.110;2022-10-17T07:26:32;98035.19;;;22.01;38.44
39363;BME280;25088;43.238;23.110;2022-10-17T07:28:57;98065.25;;;22.28;38.23
39363;BME280;25088;43.238;23.110;2022-10-17T07:31:23;98078.63;;;22.55;37.49
39363;BME280;25088;43.238;23.110;2022-10-17T07:33:49;98068.31;;;22.79;36.94
39363;BME280;25088;43.238;23.110;2022-10-17T07:36:15;98069.34;;;23.07;36.60
39363;BME280;25088;43.238;23.110;2022-10-17T07:38:41;98078.56;;;23.27;37.01
39363;BME280;25088;43.238;23.110;2022-10-17T07:41:08;98071.03;;;23.46;36.32
39363;BME280;25088;43.238;23.110;2022-10-17T07:43:35;98079.50;;;23.79;36.21
39363;BME280;25088;43.238;23.110;2022-10-17T07:46:02;98084.19;;;23.64;36.80
39363;BME280;25088;43.238;23.110;2022-10-17T07:48:27;98083.75;;;23.90;37.04
39363;BME280;25088;43.238;23.110;2022-10-17T07:50:53;98064.13;;;23.62;36.77
39363;BME280;25088;43.238;23.110;2022-10-17T07:53:19;98073.75;;;23.89;36.74
39363;BME280;25088;43.238;23.110;2022-10-17T07:55:44;98080.78;;;24.00;36.63
39363;BME280;25088;43.238;23.110;2022-10-17T07:58:11;98077.69;;;24.02;35.89
39363;BME280;25088;43.238;23.110;2022-10-17T08:00:37;98078.66;;;24.11;36.17
39363;BME280;25088;43.238;23.110;2022-10-17T08:03:03;98074.53;;;24.08;35.96
39363;BME280;25088;43.238;23.110;2022-10-17T08:05:29;98070.50;;;24.14;35.70
39363;BME280;25088;43.238;23.110;2022-10-17T08:07:54;98084.28;;;24.24;36.17
39363;BME280;25088;43.238;23.110;2022-10-17T08:10:21;98082.97;;;24.36;35.89
39363;BME280;25088;43.238;23.110;2022-10-17T08:12:55;98067.91;;;24.37;35.87
39363;BME280;25088;43.238;23.110;2022-10-17T08:15:21;98063.47;;;24.63;34.57
39363;BME280;25088;43.238;23.110;2022-10-17T08:17:47;98075.06;;;24.84;34.74
39363;BME280;25088;43.238;23.110;2022-10-17T08:20:13;98075.66;;;24.95;34.58
39363;BME280;25088;43.238;23.110;2022-10-17T08:22:38;98071.75;;;25.10;34.26
39363;BME280;25088;43.238;23.110;2022-10-17T08:25:04;98060.78;;;25.13;33.95
39363;BME280;25088;43.238;23.110;2022-10-17T08:27:31;98076.31;;;24.92;33.91
39363;BME280;25088;43.238;23.110;2022-10-17T08:29:57;98071.63;;;25.15;33.04
39363;BME280;25088;43.238;23.110;2022-10-17T08:32:25;98082.91;;;25.23;33.53
39363;BME280;25088;43.238;23.110;2022-10-17T08:34:52;98081.00;;;25.46;32.90
39363;BME280;25088;43.238;23.110;2022-10-17T08:37:17;98075.09;;;25.48;33.06
39363;BME280;25088;43.238;23.110;2022-10-17T08:39:43;98085.28;;;25.66;32.65
39363;BME280;25088;43.238;23.110;2022-10-17T08:45:18;98083.66;;;25.88;30.91
39363;BME280;25088;43.238;23.110;2022-10-17T08:47:46;98087.22;;;25.80;31.81
39363;BME280;25088;43.238;23.110;2022-10-17T08:50:45;98083.66;;;25.88;32.19
39363;BME280;25088;43.238;23.110;2022-10-17T08:55:50;98084.88;;;25.95;31.22
39363;BME280;25088;43.238;23.110;2022-10-17T09:06:22;98092.03;;;26.10;29.96
39363;BME280;25088;43.238;23.110;2022-10-17T09:17:21;98085.28;;;26.56;29.47
39363;BME280;25088;43.238;23.110;2022-10-17T09:22:28;98089.00;;;26.83;28.46
39363;BME280;25088;43.238;23.110;2022-10-17T09:25:01;98083.41;;;26.83;28.77
39363;BME280;25088;43.238;23.110;2022-10-17T09:27:34;98088.75;;;26.62;29.14
39363;BME280;25088;43.238;23.110;2022-10-17T09:32:38;98085.19;;;26.78;29.48
39363;BME280;25088;43.238;23.110;2022-10-17T09:35:11;98085.72;;;27.20;29.16
39363;BME280;25088;43.238;23.110;2022-10-17T09:37:37;98084.91;;;27.37;28.23
39363;BME280;25088;43.238;23.110;2022-10-17T09:40:18;98081.44;;;27.31;27.69
39363;BME280;25088;43.238;23.110;2022-10-17T09:42:48;98088.69;;;27.33;28.49
39363;BME280;25088;43.238;23.110;2022-10-17T09:45:23;98094.63;;;27.40;28.18
39363;BME280;25088;43.238;23.110;2022-10-17T09:48:18;98091.03;;;27.56;27.25
39363;BME280;25088;43.238;23.110;2022-10-17T09:50:48;98090.69;;;27.58;28.11
39363;BME280;25088;43.238;23.110;2022-10-17T09:53:21;98088.25;;;27.82;28.25
39363;BME280;25088;43.238;23.110;2022-10-17T09:55:57;98087.91;;;27.84;28.32
39363;BME280;25088;43.238;23.110;2022-10-17T09:58:41;98088.88;;;27.36;27.63
39363;BME280;25088;43.238;23.110;2022-10-17T10:03:44;98087.88;;;27.41;26.89
39363;BME280;25088;43.238;23.110;2022-10-17T10:06:18;98090.97;;;27.22;26.17
39363;BME280;25088;43.238;23.110;2022-10-17T10:08:50;98100.84;;;27.19;26.71
39363;BME280;25088;43.238;23.110;2022-10-17T10:11:18;98083.56;;;27.35;27.00
39363;BME280;25088;43.238;23.110;2022-10-17T10:13:47;98078.56;;;27.14;26.71
39363;BME280;25088;43.238;23.110;2022-10-17T10:16:29;98092.69;;;27.66;26.16
39363;BME280;25088;43.238;23.110;2022-10-17T10:18:55;98085.44;;;28.00;25.75
39363;BME280;25088;43.238;23.110;2022-10-17T10:21:25;98079.78;;;28.26;25.54
39363;BME280;25088;43.238;23.110;2022-10-17T10:24:11;98085.06;;;28.45;25.13
39363;BME280;25088;43.238;23.110;2022-10-17T10:26:46;98079.75;;;28.52;24.74
39363;BME280;25088;43.238;23.110;2022-10-17T10:34:54;98062.66;;;28.10;25.85
39363;BME280;25088;43.238;23.110;2022-10-17T10:37:24;98065.28;;;28.15;26.25
39363;BME280;25088;43.238;23.110;2022-10-17T10:39:56;98062.81;;;27.53;26.90
39363;BME280;25088;43.238;23.110;2022-10-17T10:42:31;98050.72;;;28.22;25.41
39363;BME280;25088;43.238;23.110;2022-10-17T10:45:24;98061.41;;;28.54;24.87
39363;BME280;25088;43.238;23.110;2022-10-17T10:47:55;98062.03;;;28.98;24.97
39363;BME280;25088;43.238;23.110;2022-10-17T10:50:27;98053.56;;;29.07;25.71
39363;BME280;25088;43.238;23.110;2022-10-17T10:53:24;98059.63;;;29.39;25.65
39363;BME280;25088;43.238;23.110;2022-10-17T10:55:58;98058.38;;;29.27;26.06
39363;BME280;25088;43.238;23.110;2022-10-17T10:58:26;98064.50;;;29.29;25.50
39363;BME280;25088;43.238;23.110;2022-10-17T11:00:53;98058.78;;;29.17;26.05
39363;BME280;25088;43.238;23.110;2022-10-17T11:03:28;98058.25;;;29.24;25.46
39363;BME280;25088;43.238;23.110;2022-10-17T11:06:08;98056.03;;;29.08;25.52
39363;BME280;25088;43.238;23.110;2022-10-17T11:08:47;98049.44;;;29.04;25.34
39363;BME280;25088;43.238;23.110;2022-10-17T11:11:38;98055.78;;;28.84;25.27
39363;BME280;25088;43.238;23.110;2022-10-17T11:16:41;98046.25;;;29.15;25.09
39363;BME280;25088;43.238;23.110;2022-10-17T11:24:54;98042.00;;;29.29;25.61
39363;BME280;25088;43.238;23.110;2022-10-17T11:27:22;98038.03;;;29.30;24.84
39363;BME280;25088;43.238;23.110;2022-10-17T11:29:49;98031.44;;;29.47;24.91
39363;BME280;25088;43.238;23.110;2022-10-17T11:32:40;98032.59;;;29.25;24.90
39363;BME280;25088;43.238;23.110;2022-10-17T11:35:26;98036.06;;;29.01;25.29
39363;BME280;25088;43.238;23.110;2022-10-17T11:38:07;98030.22;;;29.36;25.02
39363;BME280;25088;43.238;23.110;2022-10-17T11:40:40;98023.47;;;29.28;25.17
39363;BME280;25088;43.238;23.110;2022-10-17T11:43:25;98019.88;;;29.70;24.31
39363;BME280;25088;43.238;23.110;2022-10-17T11:45:57;98020.09;;;29.65;24.68
39363;BME280;25088;43.238;23.110;2022-10-17T11:48:33;98017.25;;;29.98;24.69
39363;BME280;25088;43.238;23.110;2022-10-17T11:51:21;98015.59;;;29.84;25.11
39363;BME280;25088;43.238;23.110;2022-10-17T11:53:57;98009.75;;;29.06;25.05
39363;BME280;25088;43.238;23.110;2022-10-17T11:56:36;98015.38;;;29.06;25.41
39363;BME280;25088;43.238;23.110;2022-10-17T11:59:17;98018.13;;;28.29;26.62
39363;BME280;25088;43.238;23.110;2022-10-17T12:01:56;98005.88;;;27.44;27.73
39363;BME280;25088;43.238;23.110;2022-10-17T12:04:49;98008.44;;;28.18;27.74
39363;BME280;25088;43.238;23.110;2022-10-17T12:14:00;98004.50;;;30.00;25.25
39363;BME280;25088;43.238;23.110;2022-10-17T12:21:26;97996.09;;;29.79;26.08
39363;BME280;25088;43.238;23.110;2022-10-17T12:23:53;98006.44;;;29.87;26.07
39363;BME280;25088;43.238;23.110;2022-10-17T12:26:27;97997.06;;;30.17;26.04
39363;BME280;25088;43.238;23.110;2022-10-17T12:28:53;97993.91;;;30.30;25.41
39363;BME280;25088;43.238;23.110;2022-10-17T12:31:24;98000.59;;;30.38;25.62
39363;BME280;25088;43.238;23.110;2022-10-17T12:34:02;97998.75;;;30.42;25.19
39363;BME280;25088;43.238;23.110;2022-10-17T12:54:43;97990.63;;;30.41;25.45
39363;BME280;25088;43.238;23.110;2022-10-17T12:57:23;97991.34;;;30.37;25.42
39363;BME280;25088;43.238;23.110;2022-10-17T12:59:51;97983.47;;;30.31;25.27
39363;BME280;25088;43.238;23.110;2022-10-17T13:02:23;97986.19;;;30.40;25.41
39363;BME280;25088;43.238;23.110;2022-10-17T13:04:51;97990.06;;;30.35;25.47
39363;BME280;25088;43.238;23.110;2022-10-17T13:07:20;97985.03;;;30.07;25.51
39363;BME280;25088;43.238;23.110;2022-10-17T13:09:47;97985.38;;;29.94;25.39
39363;BME280;25088;43.238;23.110;2022-10-17T13:12:18;97999.38;;;29.81;25.35
39363;BME280;25088;43.238;23.110;2022-10-17T13:14:46;97999.66;;;29.47;25.92
39363;BME280;25088;43.238;23.110;2022-10-17T13:17:40;97999.19;;;29.45;26.26
39363;BME280;25088;43.238;23.110;2022-10-17T13:20:17;97987.44;;;29.64;25.87
39363;BME280;25088;43.238;23.110;2022-10-17T13:22:44;97983.66;;;29.80;25.65
39363;BME280;25088;43.238;23.110;2022-10-17T13:25:15;97980.84;;;29.80;25.93
39363;BME280;25088;43.238;23.110;2022-10-17T13:27:41;97991.63;;;29.78;25.77
39363;BME280;25088;43.238;23.110;2022-10-17T13:30:32;97985.31;;;29.81;26.09
39363;BME280;25088;43.238;23.110;2022-10-17T13:32:58;98002.53;;;28.88;26.79
39363;BME280;25088;43.238;23.110;2022-10-17T13:35:30;97992.72;;;28.26;27.32
39363;BME280;25088;43.238;23.110;2022-10-17T13:37:58;97993.09;;;28.07;27.71
39363;BME280;25088;43.238;23.110;2022-10-17T13:40:27;97999.06;;;28.61;27.21
39363;BME280;25088;43.238;23.110;2022-10-17T13:42:56;97988.00;;;28.85;26.74
39363;BME280;25088;43.238;23.110;2022-10-17T13:45:33;97991.13;;;28.84;26.58
39363;BME280;25088;43.238;23.110;2022-10-17T13:48:04;97995.69;;;29.27;26.92
39363;BME280;25088;43.238;23.110;2022-10-17T13:55:59;98006.88;;;28.47;28.62
39363;BME280;25088;43.238;23.110;2022-10-17T13:58:28;98002.94;;;28.39;28.39
39363;BME280;25088;43.238;23.110;2022-10-17T14:00:54;97997.88;;;28.15;28.35
39363;BME280;25088;43.238;23.110;2022-10-17T14:03:21;97997.72;;;28.12;27.91
39363;BME280;25088;43.238;23.110;2022-10-17T14:06:10;98000.56;;;27.68;27.99
39363;BME280;25088;43.238;23.110;2022-10-17T14:08:38;97995.63;;;27.82;28.41
39363;BME280;25088;43.238;23.110;2022-10-17T14:11:13;97998.13;;;27.67;28.61
39363;BME280;25088;43.238;23.110;2022-10-17T14:13:40;97992.84;;;27.74;28.28
39363;BME280;25088;43.238;23.110;2022-10-17T14:16:06;98003.88;;;27.88;28.44
39363;BME280;25088;43.238;23.110;2022-10-17T14:18:35;98010.13;;;28.11;28.72
39363;BME280;25088;43.238;23.110;2022-10-17T14:21:02;98017.31;;;28.29;28.14
39363;BME280;25088;43.238;23.110;2022-10-17T14:23:40;98012.75;;;28.16;29.61
39363;BME280;25088;43.238;23.110;2022-10-17T14:26:32;98014.44;;;27.39;30.75
39363;BME280;25088;43.238;23.110;2022-10-17T14:29:16;98014.59;;;26.59;31.54
39363;BME280;25088;43.238;23.110;2022-10-17T14:31:42;98008.84;;;26.33;31.98
39363;BME280;25088;43.238;23.110;2022-10-17T14:34:21;98011.72;;;26.42;32.10
39363;BME280;25088;43.238;23.110;2022-10-17T14:36:50;98027.34;;;25.44;33.46
39363;BME280;25088;43.238;23.110;2022-10-17T14:39:23;98031.50;;;24.83;34.63
39363;BME280;25088;43.238;23.110;2022-10-17T14:41:50;98036.69;;;24.16;35.51
39363;BME280;25088;43.238;23.110;2022-10-17T14:44:28;98035.34;;;23.10;37.34
39363;BME280;25088;43.238;23.110;2022-10-17T14:47:17;98040.72;;;21.37;39.64
39363;BME280;25088;43.238;23.110;2022-10-17T14:49:55;98049.56;;;20.25;41.54
39363;BME280;25088;43.238;23.110;2022-10-17T14:52:27;98050.97;;;19.41;43.04
39363;BME280;25088;43.238;23.110;2022-10-17T14:54:54;98057.53;;;18.99;44.06